createdAt,value
2022-12-05T00:00:41.502Z,67.78
2022-12-05T00:03:47.612Z,68.01
2022-12-05T00:06:53.317Z,68.09
2022-12-05T00:09:58.882Z,68.07
2022-12-05T00:13:04.722Z,67.93
2022-12-05T00:16:16.404Z,67.84
2022-12-05T00:19:22.791Z,68.05
2022-12-05T00:22:27.029Z,67.96
2022-12-05T00:25:32.756Z,68.12
2022-12-05T00:28:38.407Z,67.79
2022-12-05T00:31:44.057Z,67.69
2022-12-05T00:34:50.122Z,67.87
2022-12-05T00:37:55.612Z,67.70
2022-12-05T00:41:05.443Z,67.49
2022-12-05T00:44:11.838Z,67.62
2022-12-05T00:47:15.798Z,67.43
2022-12-05T00:50:21.452Z,67.57
2022-12-05T00:53:26.932Z,67.62
2022-12-05T00:56:33.738Z,67.62
2022-12-05T00:59:39.173Z,67.50
2022-12-05T01:02:44.880Z,67.51
2022-12-05T01:05:50.474Z,67.66
2022-12-05T01:08:57.757Z,67.29
2022-12-05T01:12:03.267Z,67.27
2022-12-05T01:15:11.239Z,67.30
2022-12-05T01:18:16.925Z,67.38
2022-12-05T01:21:23.307Z,67.54
2022-12-05T01:24:30.118Z,67.75
2022-12-05T01:27:35.621Z,68.04
2022-12-05T01:30:42.207Z,68.16
2022-12-05T01:33:48.854Z,67.98
2022-12-05T01:36:54.279Z,67.48
2022-12-05T01:40:00.044Z,67.48
2022-12-05T01:43:11.661Z,67.79
2022-12-05T01:46:17.174Z,67.89
2022-12-05T01:49:25.155Z,68.40
2022-12-05T01:52:34.172Z,68.48
2022-12-05T01:55:40.208Z,68.76
2022-12-05T01:58:47.051Z,68.64
2022-12-05T02:01:52.700Z,68.71
2022-12-05T02:05:06.584Z,68.80
2022-12-05T02:08:13.337Z,68.84
2022-12-05T02:11:19.116Z,68.97
2022-12-05T02:14:33.328Z,68.65
2022-12-05T02:17:49.261Z,68.62
2022-12-05T02:21:11.679Z,68.73
2022-12-05T02:24:49.922Z,68.50
2022-12-05T02:28:17.252Z,68.34
2022-12-05T02:31:28.744Z,68.02
2022-12-05T02:34:43.126Z,67.76
2022-12-05T02:37:55.371Z,67.49
2022-12-05T02:41:13.068Z,67.49
2022-12-05T02:44:24.759Z,67.68
2022-12-05T02:47:34.817Z,67.71
2022-12-05T02:50:43.393Z,67.69
2022-12-05T02:53:50.365Z,67.44
2022-12-05T02:56:58.583Z,67.34
2022-12-05T03:00:04.540Z,67.35
2022-12-05T03:03:16.238Z,67.54
2022-12-05T03:06:26.746Z,67.04
2022-12-05T03:09:37.047Z,67.01
2022-12-05T03:12:48.085Z,67.13
2022-12-05T03:15:59.062Z,67.23
2022-12-05T03:19:11.472Z,67.33
2022-12-05T03:22:25.726Z,67.41
2022-12-05T03:25:37.413Z,67.50
2022-12-05T03:28:55.761Z,67.78
2022-12-05T03:32:09.714Z,68.02
2022-12-05T03:35:24.070Z,68.14
2022-12-05T03:38:36.275Z,68.14
2022-12-05T03:41:45.248Z,68.45
2022-12-05T03:44:55.565Z,68.33
2022-12-05T03:48:08.728Z,67.97
2022-12-05T03:51:17.181Z,67.93
2022-12-05T03:54:25.775Z,67.91
2022-12-05T03:57:35.758Z,68.10
2022-12-05T04:00:45.226Z,67.69
2022-12-05T04:03:55.933Z,67.86
2022-12-05T04:07:05.586Z,68.10
2022-12-05T04:10:17.568Z,67.91
2022-12-05T04:13:28.083Z,67.93
2022-12-05T04:16:58.439Z,67.57
2022-12-05T04:20:25.800Z,67.76
2022-12-05T04:23:31.963Z,67.64
2022-12-05T04:26:44.291Z,67.65
2022-12-05T04:29:59.486Z,67.93
2022-12-05T04:33:11.138Z,67.89
2022-12-05T04:36:20.613Z,67.84
2022-12-05T04:39:30.531Z,67.70
2022-12-05T04:42:37.847Z,67.47
2022-12-05T04:45:45.363Z,67.25
2022-12-05T04:48:55.371Z,67.22
2022-12-05T04:52:05.253Z,67.42
2022-12-05T04:55:16.351Z,67.45
2022-12-05T04:58:24.442Z,67.38
2022-12-05T05:01:36.094Z,67.30
2022-12-05T05:04:45.571Z,67.48
2022-12-05T05:07:53.890Z,67.30
2022-12-05T05:11:11.592Z,67.42
2022-12-05T05:14:17.042Z,67.46
2022-12-05T05:17:22.486Z,67.20
2022-12-05T05:20:28.139Z,67.06
2022-12-05T05:23:33.580Z,67.28
2022-12-05T05:26:40.615Z,67.13
2022-12-05T05:29:46.747Z,67.32
2022-12-05T05:32:52.593Z,67.24
2022-12-05T05:35:58.142Z,66.95
2022-12-05T05:39:06.801Z,67.13
2022-12-05T05:42:12.308Z,67.10
2022-12-05T05:45:18.559Z,66.91
2022-12-05T05:48:22.689Z,67.29
2022-12-05T05:51:29.624Z,67.31
2022-12-05T05:54:35.100Z,67.18
2022-12-05T05:57:40.595Z,67.46
2022-12-05T06:00:46.218Z,67.62
2022-12-05T06:03:52.450Z,67.54
2022-12-05T06:06:56.458Z,67.94
2022-12-05T06:10:02.079Z,68.58
2022-12-05T06:13:07.723Z,68.77
2022-12-05T06:16:16.479Z,68.86
2022-12-05T06:19:21.972Z,69.30
2022-12-05T06:22:27.523Z,69.72
2022-12-05T06:25:33.072Z,69.63
2022-12-05T06:28:39.553Z,69.81
2022-12-05T06:31:45.354Z,69.96
2022-12-05T06:34:50.950Z,69.87
2022-12-05T06:37:56.404Z,69.67
2022-12-05T06:41:05.428Z,69.54
2022-12-05T06:44:12.410Z,69.58
2022-12-05T06:47:17.855Z,69.51
2022-12-05T06:50:23.507Z,69.41
2022-12-05T06:53:29.364Z,68.96
2022-12-05T06:56:34.813Z,68.92
2022-12-05T06:59:40.257Z,68.71
2022-12-05T07:02:45.862Z,68.65
2022-12-05T07:05:51.459Z,68.42
2022-12-05T07:08:57.009Z,68.41
2022-12-05T07:12:02.559Z,68.34
2022-12-05T07:15:09.597Z,68.58
2022-12-05T07:18:15.294Z,68.65
2022-12-05T07:21:22.317Z,68.53
2022-12-05T07:24:28.236Z,68.53
2022-12-05T07:27:34.653Z,68.55
2022-12-05T07:30:38.617Z,68.48
2022-12-05T07:33:44.373Z,68.72
2022-12-05T07:36:49.923Z,68.50
2022-12-05T07:39:56.497Z,68.40
2022-12-05T07:43:02.215Z,68.77
2022-12-05T07:46:09.340Z,68.97
2022-12-05T07:49:15.880Z,68.66
2022-12-05T07:52:19.817Z,68.68
2022-12-05T07:55:25.264Z,68.52
2022-12-05T07:58:30.957Z,68.33
2022-12-05T08:01:37.035Z,68.44
2022-12-05T08:04:42.527Z,67.58
2022-12-05T08:07:48.029Z,67.65
2022-12-05T08:10:53.627Z,67.42
2022-12-05T08:14:00.168Z,67.73
2022-12-05T08:17:05.955Z,68.05
2022-12-05T08:20:13.515Z,68.15
2022-12-05T08:23:18.999Z,67.91
2022-12-05T08:26:26.323Z,68.30
2022-12-05T08:29:31.784Z,67.83
2022-12-05T08:32:37.284Z,66.62
2022-12-05T08:35:42.760Z,66.32
2022-12-05T08:38:48.601Z,66.75
2022-12-05T08:41:54.086Z,67.12
2022-12-05T08:44:59.717Z,67.76
2022-12-05T08:48:06.055Z,68.27
2022-12-05T08:51:14.310Z,68.42
2022-12-05T08:54:19.922Z,68.56
2022-12-05T08:57:25.367Z,68.83
2022-12-05T09:00:31.837Z,68.90
2022-12-05T09:03:37.412Z,69.35
2022-12-05T09:06:43.695Z,69.23
2022-12-05T09:09:47.665Z,69.58
2022-12-05T09:12:53.623Z,69.55
2022-12-05T09:15:59.111Z,69.65
2022-12-05T09:19:05.672Z,69.81
2022-12-05T09:22:11.195Z,69.95
2022-12-05T09:25:16.737Z,70.12
2022-12-05T09:28:22.192Z,70.32
2022-12-05T09:31:29.456Z,71.16
2022-12-05T09:34:35.540Z,71.78
2022-12-05T09:37:41.100Z,71.74
2022-12-05T09:40:47.179Z,72.46
2022-12-05T09:44:00.574Z,72.64
2022-12-05T09:47:14.739Z,72.16
2022-12-05T09:50:24.014Z,72.40
2022-12-05T09:53:32.025Z,72.24
2022-12-05T09:56:39.272Z,71.97
2022-12-05T09:59:44.819Z,71.82
2022-12-05T10:02:59.994Z,71.68
2022-12-05T10:06:14.865Z,71.45
2022-12-05T10:09:35.771Z,71.14
2022-12-05T10:13:04.258Z,70.98
2022-12-05T10:16:15.457Z,70.84
2022-12-05T10:19:26.827Z,70.60
2022-12-05T10:22:41.899Z,70.42
2022-12-05T10:25:48.320Z,70.09
2022-12-05T10:28:57.252Z,69.92
2022-12-05T10:32:11.827Z,70.05
2022-12-05T10:35:20.715Z,70.19
2022-12-05T10:38:30.963Z,70.24
2022-12-05T10:41:36.797Z,70.20
2022-12-05T10:44:43.002Z,70.14
2022-12-05T10:47:49.896Z,70.24
2022-12-05T10:50:58.104Z,70.32
2022-12-05T10:54:03.961Z,70.39
2022-12-05T10:57:23.560Z,70.00
2022-12-05T11:00:33.056Z,69.87
2022-12-05T11:03:41.660Z,70.02
2022-12-05T11:06:53.459Z,69.91
2022-12-05T11:09:59.511Z,69.88
2022-12-05T11:13:17.699Z,69.71
2022-12-05T11:16:26.707Z,69.60
2022-12-05T11:19:34.952Z,69.44
2022-12-05T11:22:44.449Z,69.27
2022-12-05T11:25:53.505Z,69.58
2022-12-05T11:28:58.943Z,69.36
2022-12-05T11:32:06.748Z,69.46
2022-12-05T11:35:29.916Z,69.57
2022-12-05T11:38:36.003Z,69.22
2022-12-05T11:41:55.013Z,69.22
2022-12-05T11:45:29.543Z,69.19
2022-12-05T11:48:52.700Z,68.89
2022-12-05T11:52:07.057Z,68.31
2022-12-05T11:55:21.287Z,68.31
2022-12-05T11:58:45.863Z,67.81
2022-12-05T12:01:59.796Z,67.80
2022-12-05T12:05:16.568Z,67.54
2022-12-05T12:08:27.678Z,67.60
2022-12-05T12:11:40.668Z,67.44
2022-12-05T12:15:00.934Z,66.49
2022-12-05T12:18:17.307Z,66.84
2022-12-05T12:21:27.447Z,66.85
2022-12-05T12:24:51.505Z,66.60
2022-12-05T12:28:11.143Z,66.59
2022-12-05T12:31:31.642Z,66.47
2022-12-05T12:34:57.898Z,66.14
2022-12-05T12:38:28.350Z,65.89
2022-12-05T12:42:03.803Z,65.99
2022-12-05T12:45:49.319Z,66.21
2022-12-05T12:49:20.315Z,66.10
2022-12-05T12:52:29.262Z,65.95
2022-12-05T12:55:46.996Z,65.60
2022-12-05T12:59:03.127Z,64.80
2022-12-05T13:02:14.529Z,64.88
2022-12-05T13:05:29.331Z,64.64
2022-12-05T13:08:41.463Z,64.59
2022-12-05T13:11:50.622Z,64.58
2022-12-05T13:15:01.971Z,64.30
2022-12-05T13:18:12.744Z,64.66
2022-12-05T13:21:19.256Z,64.46
2022-12-05T13:24:27.115Z,64.36
2022-12-05T13:27:32.639Z,64.62
2022-12-05T13:30:57.930Z,64.45
2022-12-05T13:34:03.731Z,64.18
2022-12-05T13:37:37.916Z,64.13
2022-12-05T13:41:11.765Z,64.42
2022-12-05T13:44:28.036Z,64.35
2022-12-05T13:47:39.729Z,63.90
2022-12-05T13:50:52.069Z,64.01
2022-12-05T13:54:05.967Z,63.70
2022-12-05T13:57:49.515Z,63.67
2022-12-05T14:01:36.979Z,64.26
2022-12-05T14:04:54.207Z,64.57
2022-12-05T14:08:03.764Z,64.71
2022-12-05T14:11:13.932Z,64.75
2022-12-05T14:14:58.167Z,64.85
2022-12-05T14:18:15.694Z,64.84
2022-12-05T14:21:36.400Z,64.72
2022-12-05T14:24:50.940Z,63.63
2022-12-05T14:28:03.297Z,63.48
2022-12-05T14:31:27.289Z,63.66
2022-12-05T14:34:36.119Z,64.88
2022-12-05T14:37:49.890Z,65.49
2022-12-05T14:41:06.150Z,65.57
2022-12-05T14:44:20.530Z,65.36
2022-12-05T14:47:28.884Z,64.93
2022-12-05T14:50:45.496Z,64.68
2022-12-05T14:53:51.804Z,63.73
2022-12-05T14:57:04.007Z,63.08
2022-12-05T15:00:18.939Z,63.88
2022-12-05T15:03:30.080Z,63.58
2022-12-05T15:06:38.929Z,62.74
2022-12-05T15:09:52.279Z,63.59
2022-12-05T15:13:01.974Z,64.19
2022-12-05T15:16:16.785Z,65.50
2022-12-05T15:19:34.629Z,66.21
2022-12-05T15:22:40.486Z,64.98
2022-12-05T15:25:47.060Z,64.29
2022-12-05T15:29:05.956Z,63.53
2022-12-05T15:32:22.271Z,63.40
2022-12-05T15:35:32.480Z,63.63
2022-12-05T15:38:39.612Z,65.73
2022-12-05T15:41:45.109Z,67.12
2022-12-05T15:44:50.667Z,65.61
2022-12-05T15:47:58.064Z,65.02
2022-12-05T15:51:04.264Z,64.44
2022-12-05T15:54:14.289Z,63.58
2022-12-05T15:57:26.176Z,64.84
2022-12-05T16:00:34.235Z,64.76
2022-12-05T16:03:46.633Z,64.01
2022-12-05T16:06:55.980Z,62.85
2022-12-05T16:10:03.272Z,63.36
2022-12-05T16:13:14.427Z,63.97
2022-12-05T16:16:23.446Z,63.39
2022-12-05T16:19:30.271Z,63.01
2022-12-05T16:22:36.476Z,62.52
2022-12-05T16:25:41.958Z,63.39
2022-12-05T16:28:59.728Z,63.23
2022-12-05T16:32:15.550Z,62.83
2022-12-05T16:35:35.133Z,62.72
2022-12-05T16:38:43.309Z,62.47
2022-12-05T16:41:49.811Z,62.62
2022-12-05T16:45:02.272Z,61.98
2022-12-05T16:48:18.012Z,63.24
2022-12-05T16:51:26.115Z,64.40
2022-12-05T16:54:31.671Z,65.83
2022-12-05T16:57:37.423Z,66.53
2022-12-05T17:00:42.973Z,67.07
2022-12-05T17:03:48.983Z,66.68
2022-12-05T17:06:54.816Z,65.87
2022-12-05T17:10:00.410Z,66.01
2022-12-05T17:13:06.504Z,67.16
2022-12-05T17:16:12.241Z,68.14
2022-12-05T17:19:17.952Z,69.22
2022-12-05T17:22:23.898Z,70.86
2022-12-05T17:25:36.342Z,71.07
2022-12-05T17:28:42.104Z,70.59
2022-12-05T17:31:47.887Z,68.67
2022-12-05T17:34:53.540Z,66.47
2022-12-05T17:37:59.089Z,67.48
2022-12-05T17:41:07.266Z,66.94
2022-12-05T17:44:15.591Z,66.29
2022-12-05T17:47:21.269Z,66.60
2022-12-05T17:50:29.376Z,66.66
2022-12-05T17:53:34.995Z,66.39
2022-12-05T17:56:40.576Z,67.01
2022-12-05T17:59:46.275Z,66.57
2022-12-05T18:02:52.760Z,66.51
2022-12-05T18:05:58.762Z,66.20
2022-12-05T18:09:07.147Z,66.13
2022-12-05T18:12:12.930Z,66.77
2022-12-05T18:15:19.266Z,67.10
2022-12-05T18:18:23.416Z,67.17
2022-12-05T18:21:28.965Z,67.31
2022-12-05T18:24:34.727Z,67.44
2022-12-05T18:27:40.678Z,67.64
2022-12-05T18:30:46.227Z,67.63
2022-12-05T18:33:51.922Z,67.41
2022-12-05T18:36:57.428Z,67.59
2022-12-05T18:40:03.315Z,67.66
2022-12-05T18:43:08.830Z,67.64
2022-12-05T18:46:14.555Z,67.58
2022-12-05T18:49:20.087Z,67.88
2022-12-05T18:52:25.791Z,68.31
2022-12-05T18:55:57.938Z,68.61
2022-12-05T18:58:58.951Z,68.85
2022-12-05T19:02:05.528Z,68.84
2022-12-05T19:05:11.444Z,68.64
2022-12-05T19:08:17.020Z,67.72
2022-12-05T19:11:23.153Z,67.40
2022-12-05T19:14:33.234Z,67.47
2022-12-05T19:17:38.857Z,67.36
2022-12-05T19:20:52.435Z,67.40
2022-12-05T19:23:58.760Z,67.12
2022-12-05T19:27:02.774Z,66.82
2022-12-05T19:30:10.806Z,67.33
2022-12-05T19:33:16.535Z,67.00
2022-12-05T19:36:24.260Z,67.51
2022-12-05T19:39:30.272Z,67.70
2022-12-05T19:42:36.234Z,67.28
2022-12-05T19:45:42.141Z,67.18
2022-12-05T19:48:48.057Z,67.29
2022-12-05T19:51:54.189Z,67.74
2022-12-05T19:54:59.988Z,68.30
2022-12-05T19:58:05.436Z,68.86
2022-12-05T20:01:13.435Z,69.38
2022-12-05T20:04:19.265Z,69.53
2022-12-05T20:07:24.952Z,69.56
2022-12-05T20:10:30.544Z,69.60
2022-12-05T20:13:52.527Z,70.11
2022-12-05T20:16:58.265Z,69.77
2022-12-05T20:20:04.848Z,69.11
2022-12-05T20:23:10.413Z,68.70
2022-12-05T20:26:21.081Z,68.34
2022-12-05T20:29:26.796Z,68.63
2022-12-05T20:32:32.306Z,68.57
2022-12-05T20:35:39.439Z,68.02
2022-12-05T20:38:45.785Z,68.27
2022-12-05T20:41:50.222Z,68.84
2022-12-05T20:44:55.812Z,69.24
2022-12-05T20:48:01.875Z,69.62
2022-12-05T20:51:09.469Z,69.50
2022-12-05T20:54:18.403Z,69.08
2022-12-05T20:57:23.922Z,68.78
2022-12-05T21:00:29.425Z,67.94
2022-12-05T21:03:35.668Z,67.42
2022-12-05T21:06:43.829Z,67.44
2022-12-05T21:09:49.423Z,67.63
2022-12-05T21:12:55.075Z,67.11
2022-12-05T21:16:02.438Z,66.97
2022-12-05T21:19:08.958Z,66.90
2022-12-05T21:22:14.590Z,66.74
2022-12-05T21:25:20.138Z,67.12
2022-12-05T21:28:25.580Z,67.67
2022-12-05T21:31:33.058Z,67.54
2022-12-05T21:34:38.533Z,67.83
2022-12-05T21:37:44.180Z,67.88
2022-12-05T21:40:49.556Z,68.08
2022-12-05T21:43:56.180Z,68.06
2022-12-05T21:47:01.646Z,67.77
2022-12-05T21:50:08.852Z,67.13
2022-12-05T21:53:14.329Z,66.96
2022-12-05T21:56:22.983Z,66.83
2022-12-05T21:59:32.447Z,66.57
2022-12-05T22:02:38.280Z,67.06
2022-12-05T22:05:43.927Z,66.30
2022-12-05T22:08:49.503Z,66.22
2022-12-05T22:11:54.899Z,66.51
2022-12-05T22:15:00.390Z,66.15
2022-12-05T22:18:06.299Z,66.24
2022-12-05T22:21:14.565Z,66.47
2022-12-05T22:24:20.110Z,66.46
2022-12-05T22:27:25.779Z,66.96
2022-12-05T22:30:31.318Z,67.63
2022-12-05T22:33:37.779Z,67.71
2022-12-05T22:36:43.339Z,68.09
2022-12-05T22:39:48.888Z,68.24
2022-12-05T22:42:54.301Z,67.63
2022-12-05T22:46:03.914Z,67.49
2022-12-05T22:49:11.572Z,67.83
2022-12-05T22:52:17.130Z,67.93
2022-12-05T22:55:23.086Z,68.18
2022-12-05T22:58:28.637Z,68.73
2022-12-05T23:01:35.555Z,68.54
2022-12-05T23:04:41.271Z,68.30
2022-12-05T23:07:47.069Z,68.34
2022-12-05T23:10:52.660Z,67.95
2022-12-05T23:14:02.310Z,67.99
2022-12-05T23:17:08.283Z,68.09
2022-12-05T23:20:14.356Z,68.08
2022-12-05T23:23:19.892Z,68.36
2022-12-05T23:26:28.307Z,68.49
2022-12-05T23:29:33.857Z,68.55
2022-12-05T23:32:39.407Z,68.59
2022-12-05T23:35:44.955Z,68.62
2022-12-05T23:38:50.920Z,68.93
2022-12-05T23:41:56.463Z,68.68
2022-12-05T23:45:02.013Z,68.50
2022-12-05T23:48:07.768Z,68.78
2022-12-05T23:51:15.349Z,68.60
2022-12-05T23:54:21.015Z,68.32
2022-12-05T23:57:26.667Z,68.26
